createdAt,value
2022-10-16T00:02:25.076Z,7.20
2022-10-16T00:05:14.968Z,5.40
2022-10-16T00:08:04.923Z,6.50
2022-10-16T00:10:54.623Z,6.00
2022-10-16T00:13:47.275Z,5.70
2022-10-16T00:16:37.766Z,5.90
2022-10-16T00:19:27.758Z,5.90
2022-10-16T00:22:17.528Z,4.30
2022-10-16T00:25:08.446Z,5.70
2022-10-16T00:27:58.527Z,5.70
2022-10-16T00:30:48.616Z,6.30
2022-10-16T00:33:40.449Z,5.40
2022-10-16T00:36:31.855Z,5.10
2022-10-16T00:39:23.607Z,6.70
2022-10-16T00:42:19.057Z,5.50
2022-10-16T00:45:11.804Z,5.30
2022-10-16T00:48:02.346Z,4.20
2022-10-16T00:50:52.714Z,5.10
2022-10-16T00:53:43.101Z,4.70
2022-10-16T00:56:34.380Z,5.60
2022-10-16T00:59:27.973Z,5.10
2022-10-16T01:02:19.845Z,4.60
2022-10-16T01:05:11.410Z,6.20
2022-10-16T01:08:11.416Z,4.10
2022-10-16T01:11:09.812Z,4.30
2022-10-16T01:14:04.325Z,4.40
2022-10-16T01:17:00.539Z,6.10
2022-10-16T01:20:07.647Z,5.20
2022-10-16T01:23:23.476Z,4.80
2022-10-16T01:26:23.042Z,4.90
2022-10-16T01:29:20.894Z,5.50
2022-10-16T01:32:17.632Z,4.60
2022-10-16T01:35:12.000Z,6.50
2022-10-16T01:38:07.030Z,3.50
2022-10-16T01:41:03.211Z,4.50
2022-10-16T01:43:59.158Z,4.70
2022-10-16T01:46:52.989Z,4.50
2022-10-16T01:49:45.211Z,6.10
2022-10-16T01:52:37.226Z,6.60
2022-10-16T01:55:35.416Z,4.80
2022-10-16T01:58:27.549Z,5.00
2022-10-16T02:01:21.203Z,4.10
2022-10-16T02:04:18.932Z,4.40
2022-10-16T02:07:09.191Z,4.20
2022-10-16T02:09:59.522Z,5.30
2022-10-16T02:12:53.231Z,4.30
2022-10-16T02:15:43.673Z,4.10
2022-10-16T02:18:34.372Z,6.00
2022-10-16T02:21:29.725Z,4.80
2022-10-16T02:24:26.431Z,4.90
2022-10-16T02:27:26.214Z,3.90
2022-10-16T02:30:21.821Z,4.40
2022-10-16T02:33:15.332Z,4.90
2022-10-16T02:36:05.994Z,4.30
2022-10-16T02:38:57.738Z,5.10
2022-10-16T02:41:48.489Z,5.10
2022-10-16T02:44:38.580Z,5.30
2022-10-16T02:47:28.584Z,5.20
2022-10-16T02:50:19.068Z,5.70
2022-10-16T02:53:09.214Z,5.80
2022-10-16T02:55:59.739Z,6.70
2022-10-16T02:58:50.173Z,5.00
2022-10-16T03:01:40.417Z,8.40
2022-10-16T03:04:30.799Z,5.50
2022-10-16T03:07:20.931Z,5.00
2022-10-16T03:10:12.484Z,6.40
2022-10-16T03:13:02.357Z,5.90
2022-10-16T03:15:52.351Z,7.70
2022-10-16T03:18:42.565Z,7.10
2022-10-16T03:21:32.088Z,6.60
2022-10-16T03:24:22.019Z,6.30
2022-10-16T03:27:12.411Z,7.10
2022-10-16T03:30:02.551Z,6.20
2022-10-16T03:32:55.303Z,6.30
2022-10-16T03:35:45.026Z,5.90
2022-10-16T03:38:35.065Z,5.80
2022-10-16T03:41:25.204Z,6.20
2022-10-16T03:44:15.289Z,4.80
2022-10-16T03:47:04.944Z,5.80
2022-10-16T03:49:54.852Z,6.10
2022-10-16T03:52:44.693Z,6.50
2022-10-16T03:55:34.403Z,5.50
2022-10-16T03:58:24.505Z,5.60
2022-10-16T04:01:14.545Z,5.40
2022-10-16T04:04:04.864Z,5.70
2022-10-16T04:06:54.870Z,5.10
2022-10-16T04:09:44.797Z,4.30
2022-10-16T04:12:34.545Z,5.90
2022-10-16T04:15:24.851Z,5.50
2022-10-16T04:18:15.643Z,5.70
2022-10-16T04:21:08.711Z,5.40
2022-10-16T04:23:58.702Z,6.10
2022-10-16T04:26:48.292Z,4.30
2022-10-16T04:29:38.124Z,7.00
2022-10-16T04:32:28.132Z,5.10
2022-10-16T04:35:19.854Z,4.80
2022-10-16T04:38:10.133Z,6.90
2022-10-16T04:41:01.357Z,4.90
2022-10-16T04:43:51.855Z,7.10
2022-10-16T04:46:41.807Z,7.60
2022-10-16T04:49:31.782Z,7.60
2022-10-16T04:52:22.788Z,6.10
2022-10-16T04:55:13.490Z,5.50
2022-10-16T04:58:03.821Z,6.30
2022-10-16T05:00:53.703Z,7.00
2022-10-16T05:03:44.412Z,5.40
2022-10-16T05:06:34.980Z,5.40
2022-10-16T05:09:25.133Z,7.00
2022-10-16T05:12:15.393Z,6.40
2022-10-16T05:15:06.026Z,5.80
2022-10-16T05:17:57.812Z,6.00
2022-10-16T05:20:48.079Z,6.70
2022-10-16T05:23:38.066Z,6.20
2022-10-16T05:26:28.006Z,5.90
2022-10-16T05:29:17.858Z,6.50
2022-10-16T05:32:07.501Z,5.80
2022-10-16T05:34:57.325Z,5.60
2022-10-16T05:37:47.374Z,5.70
2022-10-16T05:40:37.363Z,5.10
2022-10-16T05:43:29.123Z,9.10
2022-10-16T05:46:19.660Z,7.00
2022-10-16T05:49:09.365Z,6.90
2022-10-16T05:51:59.134Z,5.60
2022-10-16T05:54:48.815Z,7.10
2022-10-16T05:57:39.619Z,6.60
2022-10-16T06:00:29.960Z,6.80
2022-10-16T06:03:20.258Z,6.00
2022-10-16T06:06:15.386Z,6.20
2022-10-16T06:09:06.420Z,7.70
2022-10-16T06:11:56.327Z,7.00
2022-10-16T06:14:47.927Z,6.30
2022-10-16T06:17:38.180Z,6.60
2022-10-16T06:20:28.435Z,9.70
2022-10-16T06:23:18.603Z,7.20
2022-10-16T06:26:13.679Z,5.30
2022-10-16T06:29:04.110Z,7.30
2022-10-16T06:31:54.430Z,8.20
2022-10-16T06:34:44.367Z,8.10
2022-10-16T06:37:34.404Z,8.60
2022-10-16T06:40:24.463Z,6.50
2022-10-16T06:43:15.161Z,9.20
2022-10-16T06:46:06.162Z,6.50
2022-10-16T06:48:56.189Z,8.70
2022-10-16T06:51:46.010Z,6.10
2022-10-16T06:54:42.029Z,6.70
2022-10-16T06:57:33.042Z,7.60
2022-10-16T07:03:19.578Z,7.60
2022-10-16T07:06:13.148Z,6.60
2022-10-16T07:09:06.232Z,7.40
2022-10-16T07:11:56.307Z,7.10
2022-10-16T07:14:46.737Z,11.00
2022-10-16T07:17:36.656Z,13.50
2022-10-16T07:20:26.429Z,9.60
2022-10-16T07:23:16.322Z,7.50
2022-10-16T07:26:07.252Z,8.10
2022-10-16T07:28:57.951Z,9.10
2022-10-16T07:31:48.977Z,10.00
2022-10-16T07:34:38.792Z,8.40
2022-10-16T07:37:29.512Z,7.80
2022-10-16T07:40:19.820Z,8.50
2022-10-16T07:43:09.402Z,11.10
2022-10-16T07:46:02.470Z,9.70
2022-10-16T07:48:55.524Z,8.90
2022-10-16T07:51:45.538Z,14.00
2022-10-16T07:54:35.776Z,7.30
2022-10-16T07:57:26.854Z,8.80
2022-10-16T08:00:18.520Z,7.70
2022-10-16T08:03:08.808Z,9.30
2022-10-16T08:06:00.668Z,8.90
2022-10-16T08:08:50.926Z,8.60
2022-10-16T08:11:41.232Z,9.10
2022-10-16T08:14:31.517Z,7.80
2022-10-16T08:17:21.284Z,8.10
2022-10-16T08:20:13.654Z,8.10
2022-10-16T08:23:04.185Z,7.10
2022-10-16T08:25:55.261Z,11.10
2022-10-16T08:28:44.999Z,7.10
2022-10-16T08:31:35.451Z,10.30
2022-10-16T08:34:25.365Z,9.60
2022-10-16T08:37:15.894Z,9.70
2022-10-16T08:40:08.060Z,12.50
2022-10-16T08:43:27.373Z,10.50
2022-10-16T08:46:30.274Z,9.50
2022-10-16T08:49:21.053Z,11.70
2022-10-16T08:52:15.626Z,10.50
2022-10-16T08:55:06.813Z,8.60
2022-10-16T08:57:57.191Z,8.40
2022-10-16T09:00:49.948Z,9.20
2022-10-16T09:03:55.511Z,8.80
2022-10-16T09:06:53.772Z,7.40
2022-10-16T09:10:01.880Z,8.30
2022-10-16T09:13:00.475Z,7.20
2022-10-16T09:15:57.201Z,9.20
2022-10-16T09:18:53.058Z,9.40
2022-10-16T09:21:46.540Z,13.40
2022-10-16T09:24:36.329Z,8.10
2022-10-16T09:27:26.918Z,10.90
2022-10-16T09:30:20.766Z,8.10
2022-10-16T09:33:13.170Z,10.80
2022-10-16T09:36:05.611Z,9.10
2022-10-16T09:39:08.069Z,8.90
2022-10-16T09:41:58.892Z,10.00
2022-10-16T09:44:52.220Z,11.00
2022-10-16T09:47:45.591Z,15.40
2022-10-16T09:50:35.514Z,15.00
2022-10-16T09:53:25.497Z,11.40
2022-10-16T09:56:24.399Z,9.10
2022-10-16T09:59:16.508Z,10.80
2022-10-16T10:02:16.703Z,11.90
2022-10-16T10:05:19.335Z,11.30
2022-10-16T10:08:18.023Z,9.90
2022-10-16T10:11:07.456Z,11.50
2022-10-16T10:14:07.983Z,10.30
2022-10-16T10:17:14.034Z,8.00
2022-10-16T10:20:17.549Z,7.40
2022-10-16T10:23:24.432Z,10.10
2022-10-16T10:26:20.528Z,9.40
2022-10-16T10:29:18.312Z,8.70
2022-10-16T10:32:22.001Z,8.80
2022-10-16T10:35:21.863Z,11.40
2022-10-16T10:38:25.557Z,9.00
2022-10-16T10:41:43.516Z,9.50
2022-10-16T10:44:53.735Z,10.60
2022-10-16T10:47:51.281Z,11.90
2022-10-16T10:50:45.605Z,9.20
2022-10-16T10:53:46.841Z,10.00
2022-10-16T10:56:49.508Z,9.90
2022-10-16T11:00:00.757Z,8.00
2022-10-16T11:02:57.320Z,8.80
2022-10-16T11:05:52.629Z,10.80
2022-10-16T11:08:47.797Z,12.60
2022-10-16T11:11:43.583Z,16.90
2022-10-16T11:14:37.253Z,11.00
2022-10-16T11:17:30.827Z,11.00
2022-10-16T11:20:25.238Z,10.50
2022-10-16T11:23:24.108Z,11.20
2022-10-16T11:26:20.747Z,10.20
2022-10-16T11:29:18.614Z,11.70
2022-10-16T11:32:22.063Z,9.70
2022-10-16T11:35:21.980Z,10.60
2022-10-16T11:38:17.973Z,9.30
2022-10-16T11:41:17.853Z,8.20
2022-10-16T11:44:30.985Z,9.10
2022-10-16T11:50:51.585Z,8.60
2022-10-16T11:53:53.364Z,8.80
2022-10-16T11:56:46.988Z,8.50
2022-10-16T11:59:44.765Z,9.20
2022-10-16T12:02:42.781Z,8.30
2022-10-16T12:05:48.846Z,8.70
2022-10-16T12:08:39.756Z,9.00
2022-10-16T12:11:39.014Z,8.20
2022-10-16T12:15:14.692Z,7.60
2022-10-16T12:17:56.180Z,7.10
2022-10-16T12:21:00.157Z,7.10
2022-10-16T12:23:56.052Z,8.20
2022-10-16T12:26:48.747Z,9.30
2022-10-16T12:29:41.538Z,6.80
2022-10-16T12:32:52.467Z,7.30
2022-10-16T12:35:48.905Z,7.00
2022-10-16T12:38:49.734Z,7.20
2022-10-16T12:41:41.263Z,6.40
2022-10-16T12:44:36.863Z,7.40
2022-10-16T12:47:47.989Z,6.40
2022-10-16T12:50:41.970Z,9.00
2022-10-16T12:53:32.913Z,6.80
2022-10-16T12:56:33.616Z,7.30
2022-10-16T12:59:36.566Z,9.90
2022-10-16T13:02:59.565Z,10.10
2022-10-16T13:06:02.614Z,8.10
2022-10-16T13:09:13.166Z,8.40
2022-10-16T13:12:18.083Z,8.50
2022-10-16T13:15:28.988Z,8.50
2022-10-16T13:18:24.497Z,10.70
2022-10-16T13:21:30.618Z,10.20
2022-10-16T13:24:38.875Z,9.00
2022-10-16T13:27:36.807Z,8.20
2022-10-16T13:30:30.706Z,8.20
2022-10-16T13:33:26.347Z,8.70
2022-10-16T13:36:25.448Z,9.50
2022-10-16T13:39:23.268Z,9.50
2022-10-16T13:42:17.677Z,8.30
2022-10-16T13:45:20.095Z,8.20
2022-10-16T13:48:14.399Z,8.30
2022-10-16T13:51:07.204Z,8.90
2022-10-16T13:53:59.145Z,8.20
2022-10-16T13:56:57.749Z,9.60
2022-10-16T13:59:53.138Z,8.70
2022-10-16T14:02:44.554Z,8.30
2022-10-16T14:05:34.745Z,8.80
2022-10-16T14:08:26.865Z,8.10
2022-10-16T14:11:22.897Z,8.90
2022-10-16T14:14:15.111Z,10.70
2022-10-16T14:17:06.051Z,8.70
2022-10-16T14:20:00.916Z,13.30
2022-10-16T14:23:02.467Z,11.90
2022-10-16T14:25:52.388Z,10.40
2022-10-16T14:28:44.113Z,9.30
2022-10-16T14:31:37.521Z,9.10
2022-10-16T14:34:31.497Z,7.50
2022-10-16T14:37:29.371Z,8.70
2022-10-16T14:40:20.284Z,11.30
2022-10-16T14:43:20.354Z,7.80
2022-10-16T14:46:17.168Z,9.20
2022-10-16T14:49:20.206Z,9.80
2022-10-16T14:52:14.562Z,10.20
2022-10-16T14:55:04.945Z,10.80
2022-10-16T14:57:58.348Z,7.60
2022-10-16T15:00:51.304Z,9.90
2022-10-16T15:03:41.933Z,9.70
2022-10-16T15:06:31.925Z,8.80
2022-10-16T15:09:22.072Z,9.10
2022-10-16T15:12:12.416Z,8.80
2022-10-16T15:15:02.092Z,9.10
2022-10-16T15:17:53.806Z,8.90
2022-10-16T15:20:44.346Z,8.20
2022-10-16T15:23:34.116Z,9.20
2022-10-16T15:26:24.226Z,9.60
2022-10-16T15:29:14.794Z,9.30
2022-10-16T15:32:05.232Z,8.90
2022-10-16T15:34:55.847Z,10.00
2022-10-16T15:37:45.760Z,8.90
2022-10-16T15:40:36.073Z,9.80
2022-10-16T15:43:26.480Z,9.60
2022-10-16T15:46:17.234Z,10.50
2022-10-16T15:49:08.015Z,13.10
2022-10-16T15:51:58.649Z,9.20
2022-10-16T15:54:53.417Z,10.70
2022-10-16T15:57:45.209Z,8.70
2022-10-16T16:00:35.320Z,9.40
2022-10-16T16:03:25.627Z,8.40
2022-10-16T16:06:17.084Z,9.10
2022-10-16T16:09:06.875Z,8.50
2022-10-16T16:11:56.983Z,9.30
2022-10-16T16:14:49.630Z,8.50
2022-10-16T16:17:40.161Z,8.40
2022-10-16T16:20:30.536Z,8.60
2022-10-16T16:23:21.452Z,9.30
2022-10-16T16:26:15.674Z,8.10
2022-10-16T16:29:06.369Z,9.00
2022-10-16T16:31:58.344Z,8.50
2022-10-16T16:34:48.514Z,8.60
2022-10-16T16:37:38.539Z,8.50
2022-10-16T16:40:29.707Z,10.20
2022-10-16T16:43:19.841Z,10.50
2022-10-16T16:46:10.570Z,8.60
2022-10-16T16:49:02.013Z,8.80
2022-10-16T16:51:52.697Z,7.30
2022-10-16T16:54:42.936Z,7.40
2022-10-16T16:57:33.435Z,8.00
2022-10-16T17:00:23.549Z,9.80
2022-10-16T17:03:14.523Z,8.80
2022-10-16T17:06:06.660Z,7.90
2022-10-16T17:08:56.459Z,8.30
2022-10-16T17:11:47.051Z,9.50
2022-10-16T17:14:37.102Z,8.90
2022-10-16T17:17:26.963Z,10.00
2022-10-16T17:20:17.409Z,8.00
2022-10-16T17:23:07.051Z,8.80
2022-10-16T17:25:57.384Z,11.10
2022-10-16T17:28:48.044Z,8.00
2022-10-16T17:31:39.442Z,8.10
2022-10-16T17:34:29.572Z,9.40
2022-10-16T17:37:19.833Z,8.50
2022-10-16T17:43:03.111Z,9.50
2022-10-16T17:45:52.877Z,8.60
2022-10-16T17:48:44.483Z,8.40
2022-10-16T17:51:34.742Z,7.60
2022-10-16T17:54:24.816Z,8.20
2022-10-16T17:57:15.253Z,7.30
2022-10-16T18:00:05.221Z,7.70
2022-10-16T18:02:55.058Z,7.90
2022-10-16T18:05:45.140Z,8.80
2022-10-16T18:08:36.717Z,8.10
2022-10-16T18:11:28.101Z,8.60
2022-10-16T18:14:19.597Z,8.00
2022-10-16T18:17:10.154Z,8.60
2022-10-16T18:20:00.572Z,10.20
2022-10-16T18:22:50.710Z,9.80
2022-10-16T18:25:40.774Z,12.30
2022-10-16T18:28:32.490Z,12.10
2022-10-16T18:31:25.773Z,11.40
2022-10-16T18:34:16.359Z,10.10
2022-10-16T18:37:06.099Z,9.10
2022-10-16T18:39:55.761Z,8.10
2022-10-16T18:42:45.693Z,9.10
2022-10-16T18:45:35.948Z,10.00
2022-10-16T18:48:25.989Z,7.40
2022-10-16T18:51:20.004Z,7.60
2022-10-16T18:54:12.989Z,9.60
2022-10-16T18:57:03.294Z,6.50
2022-10-16T18:59:53.800Z,9.50
2022-10-16T19:02:43.621Z,7.30
2022-10-16T19:05:36.392Z,8.00
2022-10-16T19:08:26.713Z,7.00
2022-10-16T19:11:18.591Z,6.70
2022-10-16T19:14:08.841Z,8.70
2022-10-16T19:16:59.541Z,8.20
2022-10-16T19:19:49.424Z,8.40
2022-10-16T19:22:54.168Z,8.20
2022-10-16T19:25:44.135Z,6.90
2022-10-16T19:28:34.181Z,7.10
2022-10-16T19:31:26.484Z,7.70
2022-10-16T19:34:16.646Z,7.10
2022-10-16T19:37:06.492Z,6.70
2022-10-16T19:39:56.338Z,5.40
2022-10-16T19:42:48.515Z,6.50
2022-10-16T19:45:38.333Z,7.60
2022-10-16T19:48:30.050Z,6.70
2022-10-16T19:51:21.289Z,7.30
2022-10-16T19:54:13.340Z,6.00
2022-10-16T19:57:03.489Z,7.30
2022-10-16T19:59:56.055Z,6.70
2022-10-16T20:02:46.133Z,7.60
2022-10-16T20:05:36.075Z,7.80
2022-10-16T20:08:26.885Z,6.60
2022-10-16T20:11:18.185Z,4.70
2022-10-16T20:14:08.969Z,6.70
2022-10-16T20:16:58.959Z,7.60
2022-10-16T20:19:48.759Z,6.00
2022-10-16T20:22:38.419Z,5.90
2022-10-16T20:25:28.382Z,8.10
2022-10-16T20:28:20.669Z,7.00
2022-10-16T20:31:12.317Z,6.50
2022-10-16T20:34:06.293Z,5.60
2022-10-16T20:36:56.250Z,5.20
2022-10-16T20:39:46.113Z,8.50
2022-10-16T20:42:35.730Z,7.30
2022-10-16T20:45:26.071Z,6.40
2022-10-16T20:48:17.020Z,7.30
2022-10-16T20:51:16.861Z,6.30
2022-10-16T20:54:08.897Z,7.60
2022-10-16T20:56:59.354Z,6.80
2022-10-16T20:59:50.976Z,8.50
2022-10-16T21:02:41.482Z,7.10
2022-10-16T21:05:31.882Z,7.20
2022-10-16T21:08:21.587Z,8.40
2022-10-16T21:11:17.075Z,6.60
2022-10-16T21:14:08.460Z,5.50
2022-10-16T21:16:58.280Z,5.40
2022-10-16T21:19:48.241Z,6.40
2022-10-16T21:22:38.152Z,6.90
2022-10-16T21:25:27.893Z,6.90
2022-10-16T21:28:18.200Z,7.20
2022-10-16T21:31:18.971Z,6.50
2022-10-16T21:34:08.899Z,7.90
2022-10-16T21:36:58.557Z,8.30
2022-10-16T21:39:48.827Z,6.80
2022-10-16T21:42:38.975Z,6.00
2022-10-16T21:45:28.894Z,6.30
2022-10-16T21:48:19.994Z,6.40
2022-10-16T21:51:11.108Z,5.60
2022-10-16T21:54:01.709Z,6.30
2022-10-16T21:56:52.509Z,6.40
2022-10-16T21:59:42.120Z,6.50
2022-10-16T22:02:31.844Z,5.50
2022-10-16T22:05:21.641Z,7.30
2022-10-16T22:08:12.548Z,6.30
2022-10-16T22:11:07.433Z,5.70
2022-10-16T22:13:58.155Z,5.80
2022-10-16T22:16:49.079Z,7.20
2022-10-16T22:19:39.056Z,5.70
2022-10-16T22:22:29.433Z,5.60
2022-10-16T22:25:19.147Z,5.10
2022-10-16T22:28:09.403Z,6.20
2022-10-16T22:31:01.876Z,4.70
2022-10-16T22:33:56.847Z,4.70
2022-10-16T22:36:49.602Z,6.10
2022-10-16T22:39:40.234Z,7.30
2022-10-16T22:42:30.460Z,5.70
2022-10-16T22:45:21.167Z,7.00
2022-10-16T22:48:12.681Z,6.00
2022-10-16T22:51:03.534Z,4.80
2022-10-16T22:53:53.900Z,5.30
2022-10-16T22:56:44.611Z,6.00
2022-10-16T22:59:35.501Z,5.50
2022-10-16T23:02:25.931Z,6.90
2022-10-16T23:05:16.127Z,4.80
2022-10-16T23:08:07.190Z,5.60
2022-10-16T23:11:00.934Z,5.80
2022-10-16T23:13:51.993Z,5.20
2022-10-16T23:16:42.062Z,5.50
2022-10-16T23:19:32.576Z,5.80
2022-10-16T23:22:22.790Z,6.20
2022-10-16T23:25:13.057Z,5.00
2022-10-16T23:28:02.941Z,4.90
2022-10-16T23:30:52.945Z,4.30
2022-10-16T23:33:43.212Z,5.00
2022-10-16T23:36:33.403Z,5.80
2022-10-16T23:39:24.037Z,5.10
2022-10-16T23:42:14.496Z,7.20
2022-10-16T23:45:04.702Z,4.60
2022-10-16T23:47:55.088Z,5.70
2022-10-16T23:50:45.380Z,5.50
2022-10-16T23:53:35.775Z,5.00
2022-10-16T23:56:25.982Z,5.30
2022-10-16T23:59:15.877Z,5.70
